Time;durP1;ratioP1;P1;durP2;ratioP2;P2;SDS_P1;SDS_P2;PMS_P1;PMS_P2;Temp;Humidity;BMP_temperature;BMP_pressure;BME280_temperature;BME280_humidity;BME280_pressure;Samples;Min_cycle;Max_cycle;Signal;HPM_P1;HPM_P2
2022/11/01 00:01:23;;;;;;;25.17;12.48;;;;;;;8.67;100.00;99200.78;4981952;28;20145;-60
2022/11/01 00:04:08;;;;;;;40.28;12.65;;;;;;;8.72;100.00;99207.47;4999372;28;20042;-61
2022/11/01 00:06:53;;;;;;;37.45;12.45;;;;;;;8.68;100.00;99208.53;4994280;28;20034;-63
2022/11/01 00:09:37;;;;;;;44.13;12.82;;;;;;;8.68;100.00;99219.00;5002026;28;20097;-61
2022/11/01 00:12:22;;;;;;;50.90;12.52;;;;;;;8.72;100.00;99207.47;4998737;28;20045;-60
2022/11/01 00:15:06;;;;;;;53.63;13.73;;;;;;;8.68;100.00;99195.47;4979523;28;20085;-61
2022/11/01 00:17:51;;;;;;;102.55;15.40;;;;;;;8.71;100.00;99202.31;4994293;28;20051;-60
2022/11/01 00:20:36;;;;;;;51.83;12.80;;;;;;;8.77;100.00;99204.59;4977071;28;20170;-60
2022/11/01 00:23:21;;;;;;;69.03;12.60;;;;;;;8.76;100.00;99200.31;4979792;28;20042;-61
2022/11/01 00:26:06;;;;;;;45.55;13.07;;;;;;;8.73;100.00;99196.09;4993799;28;20045;-59
2022/11/01 00:28:51;;;;;;;39.80;13.80;;;;;;;8.74;100.00;99194.31;4979801;28;20038;-59
2022/11/01 00:31:35;;;;;;;69.82;14.50;;;;;;;8.72;100.00;99183.09;4995193;28;20042;-60
2022/11/01 00:34:20;;;;;;;84.43;13.52;;;;;;;8.76;100.00;99179.41;4998829;28;20058;-62
2022/11/01 00:37:05;;;;;;;68.95;14.18;;;;;;;8.79;100.00;99181.84;4997222;28;20057;-61
2022/11/01 00:39:49;;;;;;;150.73;16.15;;;;;;;8.86;100.00;99192.81;4995588;28;20038;-61
2022/11/01 00:42:34;;;;;;;209.93;15.80;;;;;;;8.77;100.00;99188.06;4993986;28;20569;-59
2022/11/01 00:45:18;;;;;;;306.90;20.50;;;;;;;8.80;100.00;99188.75;4997909;28;20034;-59
2022/11/01 00:48:03;;;;;;;250.85;19.25;;;;;;;8.78;100.00;99181.94;4997343;28;21528;-59
2022/11/01 00:50:48;;;;;;;219.50;16.75;;;;;;;8.76;100.00;99171.56;4994226;28;20124;-60
2022/11/01 00:53:33;;;;;;;273.10;20.83;;;;;;;8.77;100.00;99175.88;4995227;28;20049;-58
2022/11/01 00:56:17;;;;;;;258.45;18.27;;;;;;;8.72;100.00;99173.50;4994280;28;20592;-59
2022/11/01 00:59:02;;;;;;;146.00;14.05;;;;;;;8.70;100.00;99162.28;4998226;28;20045;-60
2022/11/01 01:01:47;;;;;;;42.75;8.45;;;;;;;8.78;100.00;99156.63;4997632;28;20049;-60
2022/11/01 01:04:32;;;;;;;118.22;11.93;;;;;;;8.81;100.00;99159.13;4992028;28;20200;-59
2022/11/01 01:07:17;;;;;;;96.22;10.73;;;;;;;8.80;100.00;99156.56;4999878;28;20052;-59
2022/11/01 01:10:02;;;;;;;100.25;10.60;;;;;;;8.85;100.00;99159.75;4994777;28;20050;-60
2022/11/01 01:12:47;;;;;;;227.25;15.60;;;;;;;8.78;100.00;99150.59;4998468;28;20038;-59
2022/11/01 01:15:31;;;;;;;165.98;14.10;;;;;;;8.87;100.00;99161.38;4992556;28;20047;-59
2022/11/01 01:18:16;;;;;;;189.65;15.65;;;;;;;8.84;100.00;99150.25;4996402;28;20054;-61
2022/11/01 01:21:02;;;;;;;125.45;10.85;;;;;;;8.86;100.00;99158.84;4994014;28;20437;-63
2022/11/01 01:23:47;;;;;;;88.85;11.13;;;;;;;8.86;100.00;99151.00;4999248;28;20038;-61
2022/11/01 01:26:32;;;;;;;65.70;9.70;;;;;;;8.87;100.00;99152.69;4980472;28;20054;-61
2022/11/01 01:29:16;;;;;;;44.60;10.07;;;;;;;8.85;100.00;99157.16;4995350;28;20069;-61
2022/11/01 01:32:01;;;;;;;30.95;9.07;;;;;;;8.85;100.00;99150.16;4997248;28;20038;-61
2022/11/01 01:34:46;;;;;;;44.25;9.88;;;;;;;8.82;100.00;99139.03;4996017;28;20580;-61
2022/11/01 01:37:30;;;;;;;40.17;9.80;;;;;;;8.82;100.00;99144.25;4994140;28;20053;-62
2022/11/01 01:40:15;;;;;;;23.50;8.93;;;;;;;8.75;100.00;99139.38;4995590;28;20046;-62
2022/11/01 01:43:00;;;;;;;19.02;10.43;;;;;;;8.74;100.00;99145.53;4997377;28;20046;-61
2022/11/01 01:45:45;;;;;;;17.50;9.55;;;;;;;8.73;100.00;99135.19;4977422;28;20054;-60
2022/11/01 01:48:29;;;;;;;14.63;8.75;;;;;;;8.72;100.00;99144.78;4987085;28;20042;-59
2022/11/01 01:51:19;;;;;;;18.70;10.02;;;;;;;8.76;100.00;99150.69;4997575;28;20141;-63
2022/11/01 01:54:04;;;;;;;15.95;9.32;;;;;;;8.72;100.00;99155.22;4999191;28;20108;-63
2022/11/01 01:56:49;;;;;;;14.60;8.70;;;;;;;8.73;100.00;99154.28;4995980;28;20149;-61
2022/11/01 01:59:35;;;;;;;16.52;9.73;;;;;;;8.78;100.00;99153.22;4977789;28;20489;-63
2022/11/01 02:02:20;;;;;;;13.70;8.07;;;;;;;8.73;100.00;99154.28;4992100;28;20136;-61
2022/11/01 02:05:23;;;;;;;14.32;8.13;;;;;;;8.80;100.00;99146.09;4996849;28;20046;-62
2022/11/01 02:08:08;;;;;;;14.05;8.80;;;;;;;8.80;100.00;99146.09;4993308;28;20064;-61
2022/11/01 02:10:59;;;;;;;18.38;10.43;;;;;;;8.82;100.00;99139.88;4977142;28;20191;-60
2022/11/01 02:13:44;;;;;;;17.80;10.75;;;;;;;8.82;100.00;99144.25;4997460;28;20133;-64
2022/11/01 02:16:40;;;;;;;21.27;11.77;;;;;;;8.83;100.00;99145.97;4995825;28;20038;-61
2022/11/01 02:19:43;;;;;;;21.23;13.13;;;;;;;8.83;100.00;99136.34;4996067;28;20133;-60
2022/11/01 02:23:05;;;;;;;23.00;13.73;;;;;;;8.85;100.00;99134.50;4994250;28;20124;-60
2022/11/01 02:25:50;;;;;;;41.17;12.90;;;;;;;8.86;100.00;99136.16;4987250;28;20497;-59
2022/11/01 02:28:37;;;;;;;31.13;12.07;;;;;;;8.77;100.00;99134.06;4989761;28;20030;-63
2022/11/01 02:31:25;;;;;;;41.65;12.32;;;;;;;8.79;100.00;99133.97;4992570;28;20053;-61
2022/11/01 02:34:18;;;;;;;60.42;13.38;;;;;;;8.70;100.00;99132.72;4991367;28;20058;-60
2022/11/01 02:37:21;;;;;;;70.15;13.85;;;;;;;8.75;100.00;99128.06;4994514;28;20448;-62
2022/11/01 02:40:10;;;;;;;71.43;14.30;;;;;;;8.70;100.00;99125.72;4993678;28;20485;-60
2022/11/01 02:43:05;;;;;;;72.13;13.20;;;;;;;8.71;100.00;99118.72;4974054;28;20049;-62
2022/11/01 02:45:50;;;;;;;131.25;14.95;;;;;;;8.66;100.00;99121.59;4996728;28;20038;-61
2022/11/01 02:48:35;;;;;;;46.90;13.73;;;;;;;8.63;100.00;99119.97;4995022;28;20158;-61
2022/11/01 02:51:22;;;;;;;69.88;12.60;;;;;;;8.65;100.00;99112.06;4985188;28;20128;-60
2022/11/01 02:54:09;;;;;;;63.20;11.70;;;;;;;8.62;100.00;99115.69;4999344;28;20047;-61
2022/11/01 02:56:57;;;;;;;49.88;11.10;;;;;;;8.67;100.00;99120.66;4978475;28;20712;-60
2022/11/01 02:59:47;;;;;;;38.67;10.80;;;;;;;8.65;100.00;99119.06;4999708;28;20042;-61
2022/11/01 03:02:42;;;;;;;66.05;11.05;;;;;;;8.62;100.00;99114.84;4991723;28;20069;-60
2022/11/01 03:06:08;;;;;;;80.97;11.55;;;;;;;8.58;100.00;99102.91;4985434;28;20034;-59
2022/11/01 03:09:00;;;;;;;70.60;11.38;;;;;;;8.55;100.00;99106.50;4996042;28;20050;-60
2022/11/01 03:12:05;;;;;;;61.25;12.10;;;;;;;8.56;100.00;99112.56;4997264;28;20117;-60
2022/11/01 03:15:19;;;;;;;80.80;12.20;;;;;;;8.50;100.00;99105.91;4995732;28;20042;-61
2022/11/01 03:18:13;;;;;;;44.55;11.25;;;;;;;8.53;100.00;99112.72;4999240;28;20557;-63
2022/11/01 03:21:14;;;;;;;27.00;10.30;;;;;;;8.49;100.00;99112.88;4999320;28;20433;-59
2022/11/01 03:24:07;;;;;;;;;;;;;;;8.47;100.00;99119.94;4986785;28;20034;-61
2022/11/01 03:27:12;;;;;;;38.45;10.95;;;;;;;8.48;100.00;99121.66;4984726;28;19971;-60
2022/11/01 03:30:04;;;;;;;41.35;11.13;;;;;;;8.50;100.00;99118.97;4996650;28;20045;-60
2022/11/01 03:32:53;;;;;;;20.60;9.90;;;;;;;8.50;100.00;99117.16;4993385;28;20702;-60
2022/11/01 03:35:41;;;;;;;27.90;11.35;;;;;;;8.42;100.00;99108.91;4994265;28;20134;-60
2022/11/01 03:38:32;;;;;;;18.42;9.00;;;;;;;8.47;100.00;99113.91;4995185;28;20042;-60
2022/11/01 03:41:18;;;;;;;36.88;9.98;;;;;;;8.42;100.00;99115.91;4994870;28;20653;-60
2022/11/01 03:44:03;;;;;;;40.92;10.75;;;;;;;8.44;100.00;99116.66;4998354;28;20046;-60
2022/11/01 03:46:49;;;;;;;55.60;10.93;;;;;;;8.41;100.00;99122.03;4978169;28;20056;-60
2022/11/01 03:49:33;;;;;;;34.47;8.80;;;;;;;8.41;100.00;99122.91;4998834;28;20046;-61
2022/11/01 03:52:18;;;;;;;37.58;9.02;;;;;;;8.42;100.00;99111.53;4997431;28;20066;-62
2022/11/01 03:55:16;;;;;;;21.50;8.40;;;;;;;8.41;100.00;99112.47;4998988;28;20042;-60
2022/11/01 03:58:01;;;;;;;14.93;8.85;;;;;;;8.37;100.00;99106.56;4993290;28;20080;-59
2022/11/01 04:00:46;;;;;;;31.10;8.57;;;;;;;8.34;100.00;99106.72;4984332;28;20059;-60
2022/11/01 04:03:31;;;;;;;37.45;8.02;;;;;;;8.39;100.00;99114.28;4997710;28;20167;-61
2022/11/01 04:06:15;;;;;;;34.25;7.88;;;;;;;8.37;100.00;99114.38;4981210;28;20041;-61
2022/11/01 04:09:00;;;;;;;35.53;8.10;;;;;;;8.34;100.00;99108.50;4994166;28;20052;-61
2022/11/01 04:11:44;;;;;;;41.75;8.23;;;;;;;8.30;100.00;99112.19;4999768;28;20100;-61
2022/11/01 04:20:35;;;;;;;31.88;8.45;;;;;;;8.34;100.00;99109.31;4993386;28;20113;-62
2022/11/01 04:23:20;;;;;;;42.45;8.32;;;;;;;8.28;100.00;99094.00;4998567;28;20105;-60
2022/11/01 04:26:06;;;;;;;26.38;7.63;;;;;;;8.28;100.00;99096.59;4979783;28;20049;-61
2022/11/01 04:28:56;;;;;;;21.20;7.88;;;;;;;8.29;100.00;99095.69;4981294;28;20046;-61
2022/11/01 04:31:40;;;;;;;32.72;9.80;;;;;;;8.29;100.00;99102.69;4997370;28;20485;-61
2022/11/01 04:34:43;;;;;;;28.63;8.20;;;;;;;8.27;100.00;99092.31;4981073;28;20504;-60
2022/11/01 04:37:30;;;;;;;15.70;7.45;;;;;;;8.31;100.00;99100.81;4993408;28;20124;-63
2022/11/01 04:40:15;;;;;;;23.02;7.93;;;;;;;8.29;100.00;99105.28;4997742;28;20050;-61
2022/11/01 04:43:00;;;;;;;45.70;8.07;;;;;;;8.29;100.00;99106.13;4985941;28;20088;-61
2022/11/01 04:45:53;;;;;;;27.00;8.35;;;;;;;8.31;100.00;99098.19;4993507;28;20129;-61
2022/11/01 04:48:38;;;;;;;22.95;6.82;;;;;;;8.30;100.00;99102.59;4993308;28;20572;-60
2022/11/01 04:51:22;;;;;;;16.42;7.05;;;;;;;8.31;100.00;99106.03;4982548;28;20433;-59
2022/11/01 04:54:07;;;;;;;18.58;7.20;;;;;;;8.33;100.00;99096.34;4996597;28;20109;-59
2022/11/01 04:56:52;;;;;;;35.17;7.78;;;;;;;8.34;100.00;99095.44;4995167;28;20523;-59
2022/11/01 04:59:36;;;;;;;21.80;7.70;;;;;;;8.30;100.00;99096.53;4994495;28;20042;-60
2022/11/01 05:02:22;;;;;;;34.75;7.90;;;;;;;8.31;100.00;99100.81;4999701;28;20089;-59
2022/11/01 05:05:08;;;;;;;45.55;7.82;;;;;;;8.27;100.00;99105.38;4995767;28;20049;-59
2022/11/01 05:08:04;;;;;;;17.40;7.07;;;;;;;8.30;100.00;99096.53;4997224;28;20048;-60
2022/11/01 05:10:52;;;;;;;24.67;6.97;;;;;;;8.34;100.00;99098.88;4983092;28;20053;-62
2022/11/01 05:13:37;;;;;;;25.63;7.18;;;;;;;8.35;100.00;99092.75;4980746;28;20157;-58
2022/11/01 05:16:22;;;;;;;17.67;7.45;;;;;;;8.34;100.00;99098.88;4978624;28;20444;-58
2022/11/01 05:19:06;;;;;;;33.88;7.32;;;;;;;8.33;100.00;99105.03;4982071;28;20050;-60
2022/11/01 05:21:51;;;;;;;21.65;6.65;;;;;;;8.32;100.00;99113.81;4995758;28;20046;-58
2022/11/01 05:24:36;;;;;;;27.77;7.63;;;;;;;8.34;100.00;99113.72;4995727;28;20519;-58
2022/11/01 05:27:20;;;;;;;34.80;7.03;;;;;;;8.36;100.00;99120.53;4997011;28;20042;-60
2022/11/01 05:30:06;;;;;;;35.58;7.13;;;;;;;8.41;100.00;99122.91;4993387;28;20042;-63
2022/11/01 05:32:59;;;;;;;26.55;7.75;;;;;;;8.38;100.00;99108.25;4986802;28;20468;-60
2022/11/01 05:35:43;;;;;;;33.17;7.63;;;;;;;8.38;100.00;99112.63;4995369;28;20057;-60
2022/11/01 05:38:28;;;;;;;23.95;7.03;;;;;;;8.52;100.00;99116.25;4982550;28;20379;-60
2022/11/01 05:41:14;;;;;;;25.33;6.93;;;;;;;8.52;100.00;99116.25;4994943;28;20050;-60
2022/11/01 05:44:02;;;;;;;26.73;6.75;;;;;;;8.53;100.00;99110.97;4959982;28;20136;-60
2022/11/01 05:46:46;;;;;;;21.60;6.70;;;;;;;8.53;100.00;99110.09;4994560;28;20041;-60
2022/11/01 05:49:31;;;;;;;28.90;6.97;;;;;;;8.47;100.00;99111.28;4981941;28;20046;-61
2022/11/01 05:52:16;;;;;;;29.48;7.53;;;;;;;8.45;100.00;99108.78;4994091;28;20054;-60
2022/11/01 05:55:01;;;;;;;26.90;7.07;;;;;;;8.47;100.00;99114.72;4997219;28;20050;-62
2022/11/01 05:57:45;;;;;;;35.55;8.85;;;;;;;8.50;100.00;99111.94;4997147;28;20069;-61
2022/11/01 06:00:32;;;;;;;46.40;9.02;;;;;;;8.49;100.00;99112.88;4994965;28;20462;-62
2022/11/01 06:03:16;;;;;;;26.25;7.03;;;;;;;8.49;100.00;99107.66;5001489;28;20062;-60
2022/11/01 06:06:01;;;;;;;26.45;8.18;;;;;;;8.49;100.00;99117.25;4990766;28;20428;-60
2022/11/01 06:08:46;;;;;;;25.30;8.80;;;;;;;8.47;100.00;99122.56;4992865;28;20042;-61
2022/11/01 06:11:31;;;;;;;16.55;8.93;;;;;;;8.56;100.00;99125.63;4991869;28;20117;-61
2022/11/01 06:14:16;;;;;;;18.60;8.32;;;;;;;8.55;100.00;99131.78;4993123;28;20043;-61
2022/11/01 06:17:00;;;;;;;23.17;8.18;;;;;;;8.83;100.00;99135.50;4980264;28;20125;-62
2022/11/01 06:19:45;;;;;;;15.82;8.55;;;;;;;8.68;100.00;99137.19;4997569;28;20061;-62
2022/11/01 06:22:30;;;;;;;19.90;9.15;;;;;;;8.56;100.00;99133.47;4990463;28;20049;-61
2022/11/01 06:25:14;;;;;;;17.55;9.07;;;;;;;8.55;100.00;99137.84;4984371;28;20046;-60
2022/11/01 06:27:59;;;;;;;18.08;9.65;;;;;;;8.57;100.00;99146.44;4997912;28;20074;-60
2022/11/01 06:30:43;;;;;;;17.13;9.43;;;;;;;8.57;100.00;99146.44;4991304;28;20080;-65
2022/11/01 06:33:28;;;;;;;25.52;9.05;;;;;;;8.59;100.00;99151.59;4993557;28;20085;-64
2022/11/01 06:36:12;;;;;;;19.20;9.05;;;;;;;8.59;100.00;99152.44;4995277;28;20050;-61
2022/11/01 06:38:56;;;;;;;26.23;9.40;;;;;;;8.66;100.00;99152.94;4991547;28;20481;-61
2022/11/01 06:41:41;;;;;;;17.20;9.02;;;;;;;8.64;100.00;99149.56;4997934;28;20042;-61
2022/11/01 06:44:26;;;;;;;15.75;8.55;;;;;;;8.64;100.00;99154.78;4993163;28;20125;-61
2022/11/01 06:47:11;;;;;;;19.48;8.82;;;;;;;8.62;100.00;99156.63;4998493;28;20049;-62
2022/11/01 06:49:56;;;;;;;24.27;10.50;;;;;;;8.69;100.00;99160.63;4981308;28;20549;-60
2022/11/01 06:52:40;;;;;;;22.27;9.95;;;;;;;8.72;100.00;99170.03;4985023;28;20625;-60
2022/11/01 06:55:26;;;;;;;18.88;9.77;;;;;;;8.69;100.00;99162.38;4975428;28;20470;-63
2022/11/01 06:58:11;;;;;;;19.27;9.85;;;;;;;8.72;100.00;99168.28;4974768;28;20046;-61
2022/11/01 07:00:56;;;;;;;20.77;11.52;;;;;;;8.69;100.00;99170.22;4974548;28;20054;-60
2022/11/01 07:03:40;;;;;;;27.23;10.15;;;;;;;8.85;100.00;99170.22;4973726;28;20069;-61
2022/11/01 07:06:29;;;;;;;28.35;10.80;;;;;;;8.79;100.00;99168.78;4965991;28;20459;-62
2022/11/01 07:09:14;;;;;;;21.13;10.95;;;;;;;8.77;100.00;99164.56;4979459;28;20110;-64
2022/11/01 07:11:58;;;;;;;22.02;9.80;;;;;;;8.78;100.00;99163.66;4971356;28;20046;-62
2022/11/01 07:14:43;;;;;;;21.80;9.20;;;;;;;8.86;100.00;99166.69;4975688;28;20047;-62
2022/11/01 07:17:27;;;;;;;18.38;8.55;;;;;;;8.91;100.00;99162.03;4973668;28;20473;-60
2022/11/01 07:20:12;;;;;;;39.45;12.23;;;;;;;8.87;100.00;99169.22;4974896;28;20051;-61
2022/11/01 07:22:59;;;;;;;24.48;11.98;;;;;;;8.92;100.00;99168.09;4962327;28;20494;-61
2022/11/01 07:25:43;;;;;;;17.55;11.25;;;;;;;9.02;100.00;99171.91;4969727;28;20568;-61
2022/11/01 07:28:29;;;;;;;18.63;10.90;;;;;;;9.04;100.00;99169.22;4980026;28;20346;-62
2022/11/01 07:31:14;;;;;;;25.15;12.55;;;;;;;9.00;100.00;99171.13;4977772;28;20039;-59
2022/11/01 07:33:58;;;;;;;26.30;12.00;;;;;;;9.02;100.00;99161.44;4978398;28;20042;-61
2022/11/01 07:36:43;;;;;;;24.73;13.63;;;;;;;8.98;100.00;99160.78;4980611;28;20078;-60
2022/11/01 07:39:28;;;;;;;24.20;12.90;;;;;;;9.05;100.00;99157.81;4975483;28;20048;-61
2022/11/01 07:42:12;;;;;;;21.38;13.10;;;;;;;9.14;100.00;99159.09;4973751;28;20045;-62
2022/11/01 07:44:57;;;;;;;21.30;13.35;;;;;;;9.16;100.00;99158.06;4978242;28;20146;-61
2022/11/01 07:47:42;;;;;;;34.15;13.95;;;;;;;8.98;100.00;99162.53;4977603;28;20397;-60
2022/11/01 07:50:31;;;;;;;34.67;15.45;;;;;;;8.96;100.00;99167.03;4981125;28;20556;-59
2022/11/01 07:53:17;;;;;;;30.27;14.10;;;;;;;9.05;100.00;99168.28;4978850;28;20062;-60
2022/11/01 07:56:02;;;;;;;31.55;13.20;;;;;;;9.04;100.00;99167.41;4965650;28;20043;-59
2022/11/01 07:58:47;;;;;;;31.77;13.18;;;;;;;9.13;100.00;99173.91;4977738;28;20046;-60
2022/11/01 08:01:31;;;;;;;33.13;15.27;;;;;;;9.06;100.00;99178.63;4974018;28;20053;-59
2022/11/01 08:04:16;;;;;;;26.45;15.32;;;;;;;9.08;100.00;99179.41;4976950;28;20039;-59
2022/11/01 08:07:01;;;;;;;26.77;14.98;;;;;;;9.25;100.00;99177.63;4981072;28;20051;-60
2022/11/01 08:09:46;;;;;;;19.27;11.13;;;;;;;9.42;100.00;99178.41;4973636;28;20510;-60
2022/11/01 08:12:30;;;;;;;22.95;14.85;;;;;;;9.21;100.00;99174.31;4967794;28;20116;-58
2022/11/01 08:15:14;;;;;;;24.45;15.13;;;;;;;9.31;100.00;99168.56;4978692;28;20073;-61
2022/11/01 08:18:00;;;;;;;26.75;14.38;;;;;;;9.34;100.00;99161.41;4972043;28;20145;-58
2022/11/01 08:20:44;;;;;;;24.13;13.82;;;;;;;9.43;100.00;99173.13;4975125;28;20042;-56
2022/11/01 08:23:29;;;;;;;28.50;14.70;;;;;;;9.42;100.00;99178.41;4979784;28;20038;-57
2022/11/01 08:26:14;;;;;;;25.98;11.75;;;;;;;9.64;100.00;99178.03;4979220;28;20050;-44
2022/11/01 08:28:59;;;;;;;31.50;14.35;;;;;;;10.01;100.00;99189.88;4974321;28;20054;-55
2022/11/01 08:31:44;;;;;;;28.77;14.35;;;;;;;9.74;100.00;99188.81;4962665;28;20045;-55
2022/11/01 08:34:31;;;;;;;33.38;14.93;;;;;;;9.60;100.00;99176.50;4963821;28;20070;-57
2022/11/01 08:37:17;;;;;;;24.95;13.55;;;;;;;10.10;100.00;99186.72;4981126;28;20513;-56
2022/11/01 08:40:02;;;;;;;32.45;17.08;;;;;;;9.76;100.00;99181.69;4975847;28;20114;-61
2022/11/01 08:42:47;;;;;;;32.53;14.27;;;;;;;9.96;100.00;99182.28;4976160;28;20050;-56
2022/11/01 08:45:32;;;;;;;42.60;14.73;;;;;;;9.73;100.00;99179.25;4977176;28;20080;-58
2022/11/01 08:48:16;;;;;;;39.22;17.98;;;;;;;9.55;100.00;99175.94;4962343;28;20047;-55
2022/11/01 08:51:04;;;;;;;34.08;17.92;;;;;;;9.56;100.00;99180.25;4978355;28;20571;-56
2022/11/01 08:53:48;;;;;;;33.45;18.42;;;;;;;9.68;100.00;99181.28;4979967;28;20053;-56
2022/11/01 08:56:33;;;;;;;31.17;18.15;;;;;;;9.63;100.00;99191.19;4992944;28;20110;-53
2022/11/01 08:59:18;;;;;;;32.25;16.80;;;;;;;9.61;100.00;99186.88;4993678;28;20724;-58
2022/11/01 09:02:02;;;;;;;40.42;17.50;;;;;;;9.61;100.00;99184.28;4996798;28;20144;-59
2022/11/01 09:04:47;;;;;;;34.33;18.50;;;;;;;9.70;100.00;99188.13;4989682;28;20042;-60
2022/11/01 09:07:35;;;;;;;36.25;18.90;;;;;;;9.56;100.00;99194.19;4985495;28;20050;-59
2022/11/01 09:10:19;;;;;;;35.53;18.40;;;;;;;9.55;100.00;99205.56;4979029;28;20061;-59
2022/11/01 09:13:04;;;;;;;37.38;18.25;;;;;;;10.26;100.00;99207.59;4994726;28;20474;-59
2022/11/01 09:15:50;;;;;;;32.72;17.27;;;;;;;9.85;100.00;99204.72;4996536;28;20052;-57
2022/11/01 09:18:35;;;;;;;31.55;17.63;;;;;;;9.74;100.00;99201.88;4986108;28;20445;-55
2022/11/01 09:21:19;;;;;;;32.70;17.80;;;;;;;9.65;100.00;99210.25;4994077;28;20108;-54
2022/11/01 09:24:04;;;;;;;37.60;18.23;;;;;;;10.18;100.00;99207.19;4994192;28;20038;-57
2022/11/01 09:26:49;;;;;;;32.40;17.63;;;;;;;10.21;100.00;99220.09;4987252;28;20487;-59
2022/11/01 09:29:34;;;;;;;32.05;17.08;;;;;;;10.19;100.00;99220.19;4993690;28;20104;-55
2022/11/01 09:32:18;;;;;;;30.48;17.45;;;;;;;10.16;100.00;99225.63;4993092;28;20124;-58
2022/11/01 09:35:04;;;;;;;31.88;17.85;;;;;;;9.94;100.00;99229.50;4995033;28;20500;-59
2022/11/01 09:37:56;;;;;;;31.55;18.02;;;;;;;9.85;100.00;99224.81;4989937;28;20056;-61
2022/11/01 09:40:45;;;;;;;29.80;17.65;;;;;;;10.18;100.00;99231.63;4984575;28;20070;-59
2022/11/01 09:43:33;;;;;;;31.35;17.45;;;;;;;10.02;100.00;99236.06;4991313;28;20043;-59
2022/11/01 09:46:24;;;;;;;34.47;18.42;;;;;;;9.94;100.00;99226.88;4984374;28;20042;-54
2022/11/01 09:49:17;;;;;;;33.03;17.48;;;;;;;9.94;100.00;99236.53;4984782;28;20093;-57
2022/11/01 09:52:03;;;;;;;27.85;15.93;;;;;;;10.24;100.00;99233.00;4979412;28;20118;-54
2022/11/01 09:54:48;;;;;;;30.52;16.02;;;;;;;10.10;100.00;99234.66;4996173;28;20038;-53
2022/11/01 09:57:34;;;;;;;27.65;16.30;;;;;;;10.22;100.00;99240.97;4993157;28;20442;-56
2022/11/01 10:00:20;;;;;;;24.92;14.00;;;;;;;10.23;100.00;99231.34;4980038;28;20062;-55
2022/11/01 10:03:57;;;;;;;26.90;14.63;;;;;;;10.37;100.00;99233.13;4989979;28;20042;-59
2022/11/01 10:06:49;;;;;;;25.55;14.45;;;;;;;10.50;100.00;99228.00;4912816;29;20059;-57
2022/11/01 10:09:37;;;;;;;25.98;14.48;;;;;;;10.81;100.00;99236.59;4916314;29;20079;-54
2022/11/01 10:12:58;;;;;;;27.13;15.02;;;;;;;10.54;100.00;99247.00;4919188;29;20526;-53
2022/11/01 10:15:57;;;;;;;25.33;14.85;;;;;;;10.64;100.00;99239.44;4863955;29;20119;-60
2022/11/01 10:19:00;;;;;;;23.10;12.85;;;;;;;10.67;100.00;99240.09;4869834;29;20053;-56
2022/11/01 10:21:59;;;;;;;24.20;13.55;;;;;;;10.64;100.00;99248.09;4873073;29;20057;-55
2022/11/01 10:24:48;;;;;;;24.25;13.20;;;;;;;10.65;100.00;99241.94;4871650;29;20121;-49
2022/11/01 10:27:51;;;;;;;26.98;13.27;;;;;;;10.59;100.00;99240.53;4874289;29;20052;-48
2022/11/01 10:30:45;;;;;;;26.35;14.20;;;;;;;10.48;100.00;99245.59;4874803;29;20061;-54
2022/11/01 10:33:42;;;;;;;26.92;15.63;;;;;;;10.63;100.00;99235.09;4863848;29;20108;-56
2022/11/01 10:36:32;;;;;;;21.73;13.35;;;;;;;10.69;100.00;99235.56;4871937;29;20045;-59
2022/11/01 10:39:34;;;;;;;23.20;12.63;;;;;;;10.72;100.00;99243.25;4872742;29;20534;-57
2022/11/01 10:42:18;;;;;;;26.80;13.23;;;;;;;10.57;100.00;99241.56;4903343;29;20056;-57
2022/11/01 10:45:07;;;;;;;26.67;14.27;;;;;;;10.58;100.00;99236.25;4937374;29;20055;-57
2022/11/01 10:47:58;;;;;;;27.58;15.23;;;;;;;10.32;100.00;99236.00;4929338;28;20051;-55
2022/11/01 10:50:43;;;;;;;25.65;15.00;;;;;;;10.62;100.00;99233.44;4952523;28;20046;-55
2022/11/01 10:53:32;;;;;;;28.02;15.85;;;;;;;10.55;100.00;99227.72;4966615;28;21100;-58
2022/11/01 10:56:31;;;;;;;27.27;14.93;;;;;;;10.46;100.00;99219.47;4950294;28;20113;-54
2022/11/01 10:59:38;;;;;;;26.25;14.20;;;;;;;10.54;100.00;99223.44;4971126;28;20103;-52
2022/11/01 11:02:26;;;;;;;30.40;15.02;;;;;;;10.37;100.00;99225.25;4956832;28;20137;-54
2022/11/01 11:05:12;;;;;;;28.27;15.70;;;;;;;10.35;100.00;99224.50;4976726;28;20055;-57
2022/11/01 11:08:02;;;;;;;39.00;21.05;;;;;;;10.30;100.00;99222.16;4968946;28;20051;-54
2022/11/01 11:10:47;;;;;;;28.55;14.70;;;;;;;10.47;100.00;99220.34;4972502;28;20070;-56
2022/11/01 11:13:33;;;;;;;26.83;14.02;;;;;;;10.47;100.00;99218.56;4972763;28;20912;-54
2022/11/01 11:16:34;;;;;;;24.60;13.32;;;;;;;10.70;100.00;99218.94;4969244;28;20134;-56
2022/11/01 11:19:20;;;;;;;26.80;14.80;;;;;;;10.55;100.00;99223.34;4970681;28;20038;-58
2022/11/01 11:22:07;;;;;;;27.95;14.52;;;;;;;11.14;100.00;99220.63;4968102;28;20053;-58
2022/11/01 11:24:57;;;;;;;33.53;17.67;;;;;;;11.09;100.00;99221.78;4992968;28;20061;-60
2022/11/01 11:27:47;;;;;;;25.13;14.18;;;;;;;11.19;100.00;99229.03;4996698;28;20121;-59
2022/11/01 11:30:34;;;;;;;26.35;14.55;;;;;;;12.84;100.00;99233.06;4998027;28;20100;-59
2022/11/01 11:33:19;;;;;;;32.17;18.17;;;;;;;12.10;100.00;99225.84;4996013;28;20038;-59
2022/11/01 11:36:06;;;;;;;29.83;16.75;;;;;;;12.02;100.00;99223.69;4979975;28;20126;-58
2022/11/01 11:38:51;;;;;;;23.90;13.43;;;;;;;11.49;100.00;99217.50;4979274;28;20482;-59
2022/11/01 11:41:37;;;;;;;26.48;15.82;;;;;;;11.63;100.00;99215.75;4996414;28;20053;-60
2022/11/01 11:44:39;;;;;;;32.35;15.82;;;;;;;13.15;100.00;99216.88;4998734;28;20083;-59
2022/11/01 11:47:27;;;;;;;32.20;15.13;;;;;;;12.23;100.00;99223.22;5001090;28;20815;-58
2022/11/01 11:50:32;;;;;;;26.67;14.27;;;;;;;12.07;100.00;99227.72;4997532;28;20140;-59
2022/11/01 11:53:21;;;;;;;31.80;15.00;;;;;;;12.05;100.00;99228.75;4994630;28;20092;-60
2022/11/01 11:56:07;;;;;;;26.13;15.10;;;;;;;11.84;100.00;99229.25;5000578;28;20473;-60
2022/11/01 11:58:54;;;;;;;24.45;14.15;;;;;;;12.79;100.00;99224.66;4981407;28;20114;-60
2022/11/01 12:01:39;;;;;;;23.35;14.25;;;;;;;13.44;100.00;99234.97;4995482;28;20070;-58
2022/11/01 12:04:29;;;;;;;26.80;14.63;;;;;;;12.76;100.00;99238.00;5000602;28;20072;-59
2022/11/01 12:07:30;;;;;;;27.80;16.13;;;;;;;12.09;100.00;99234.66;4979497;28;20459;-59
2022/11/01 12:10:29;;;;;;;28.88;15.82;;;;;;;11.64;100.00;99241.03;4996888;28;20049;-59
2022/11/01 12:13:34;;;;;;;26.98;16.23;;;;;;;11.46;100.00;99241.31;4998099;28;20076;-58
2022/11/01 12:16:23;;;;;;;31.65;17.05;;;;;;;11.46;100.00;99236.91;4995275;28;20129;-60
2022/11/01 12:19:22;;;;;;;25.73;14.50;;;;;;;11.80;100.00;99241.72;4986208;28;20038;-60
2022/11/01 12:22:09;;;;;;;24.40;13.77;;;;;;;12.89;100.00;99233.53;4981285;28;20129;-58
2022/11/01 12:24:58;;;;;;;26.25;14.75;;;;;;;12.31;100.00;99240.16;4994271;28;20342;-59
2022/11/01 12:27:50;;;;;;;22.15;12.85;;;;;;;12.80;100.00;99247.34;4997502;28;20107;-59
2022/11/01 12:30:38;;;;;;;25.40;15.02;;;;;;;12.94;100.00;99239.31;4984081;28;21805;-58
2022/11/01 12:33:29;;;;;;;24.38;14.38;;;;;;;12.96;100.00;99247.09;4996410;28;20046;-59
2022/11/01 12:36:16;;;;;;;28.42;14.63;;;;;;;12.23;100.00;99242.44;4993752;28;20789;-59
2022/11/01 12:39:23;;;;;;;26.73;15.20;;;;;;;12.46;100.00;99247.06;4995247;28;20720;-59
2022/11/01 12:42:13;;;;;;;22.42;14.27;;;;;;;13.27;100.00;99236.16;4982558;28;20058;-59
2022/11/01 12:45:40;;;;;;;28.80;16.77;;;;;;;12.73;100.00;99251.38;4994758;28;20448;-58
2022/11/01 12:48:33;;;;;;;31.15;17.15;;;;;;;12.74;100.00;99246.00;4926859;29;20771;-58
2022/11/01 12:51:31;;;;;;;32.92;17.80;;;;;;;13.10;100.00;99242.66;4925632;29;20100;-59
2022/11/01 12:54:27;;;;;;;25.92;15.32;;;;;;;13.05;100.00;99240.38;4912602;29;20190;-59
2022/11/01 12:57:15;;;;;;;27.67;16.33;;;;;;;12.93;100.00;99245.53;4924884;29;20058;-60
2022/11/01 13:00:00;;;;;;;29.75;16.52;;;;;;;12.86;100.00;99236.41;4926398;29;20055;-59